<?xml version="1.0" encoding="UTF-8"?>
<gpx xmlns="http://www.topografix.com/GPX/1/1" xmlns:xsi="http://www.w3.org/2001/XMLSchema-instance" version="1.1" xsi:schemaLocation="http://www.topografix.com/GPX/1/1 http://www.topografix.com/GPX/1/1/gpx.xsd">
  <metadata>
    <name>Barefoot Triathlon Series Scorching Bay - Sprint Aquabike</name>
  </metadata>
  <trk>
    <name>Barefoot Triathlon Series Scorching Bay - Sprint Aquabike</name>
    <trkseg>
      <trkpt lat="-41.296642" lon="174.83308">
        <ele>4.769729</ele>
        <time>2024-03-17T08:15:00.000Z</time>
      </trkpt>
      <trkpt lat="-41.296889" lon="174.832682">
        <ele>4.769739</ele>
        <time>2024-03-17T08:15:04.000Z</time>
      </trkpt>
      <trkpt lat="-41.297154" lon="174.832467">
        <ele>4.769737</ele>
        <time>2024-03-17T08:15:07.000Z</time>
      </trkpt>
      <trkpt lat="-41.297374" lon="174.832395">
        <ele>4.74398</ele>
        <time>2024-03-17T08:15:10.000Z</time>
      </trkpt>
      <trkpt lat="-41.29741" lon="174.832387">
        <ele>4.698085</ele>
        <time>2024-03-17T08:15:10.000Z</time>
      </trkpt>
      <trkpt lat="-41.297796" lon="174.832358">
        <ele>4.18922</ele>
        <time>2024-03-17T08:15:14.000Z</time>
      </trkpt>
      <trkpt lat="-41.297836" lon="174.832356">
        <ele>4.147949</ele>
        <time>2024-03-17T08:15:14.000Z</time>
      </trkpt>
      <trkpt lat="-41.298444" lon="174.832304">
        <ele>3.356615</ele>
        <time>2024-03-17T08:15:21.000Z</time>
      </trkpt>
      <trkpt lat="-41.299141" lon="174.832441">
        <ele>2.466233</ele>
        <time>2024-03-17T08:15:29.000Z</time>
      </trkpt>
      <trkpt lat="-41.299307" lon="174.832417">
        <ele>2.361074</ele>
        <time>2024-03-17T08:15:31.000Z</time>
      </trkpt>
      <trkpt lat="-41.299384" lon="174.832392">
        <ele>2.319983</ele>
        <time>2024-03-17T08:15:32.000Z</time>
      </trkpt>
      <trkpt lat="-41.299681" lon="174.832101">
        <ele>2.120651</ele>
        <time>2024-03-17T08:15:36.000Z</time>
      </trkpt>
      <trkpt lat="-41.299936" lon="174.831887">
        <ele>1.95335</ele>
        <time>2024-03-17T08:15:39.000Z</time>
      </trkpt>
      <trkpt lat="-41.300155" lon="174.831757">
        <ele>1.828624</ele>
        <time>2024-03-17T08:15:42.000Z</time>
      </trkpt>
      <trkpt lat="-41.30023" lon="174.831736">
        <ele>1.788371</ele>
        <time>2024-03-17T08:15:43.000Z</time>
      </trkpt>
      <trkpt lat="-41.300564" lon="174.831781">
        <ele>1.599504</ele>
        <time>2024-03-17T08:15:47.000Z</time>
      </trkpt>
      <trkpt lat="-41.300736" lon="174.831776">
        <ele>1.514505</ele>
        <time>2024-03-17T08:15:49.000Z</time>
      </trkpt>
      <trkpt lat="-41.301064" lon="174.831536">
        <ele>1.839003</ele>
        <time>2024-03-17T08:15:53.000Z</time>
      </trkpt>
      <trkpt lat="-41.301154" lon="174.831513">
        <ele>1.949743</ele>
        <time>2024-03-17T08:15:54.000Z</time>
      </trkpt>
      <trkpt lat="-41.302339" lon="174.831409">
        <ele>3.310725</ele>
        <time>2024-03-17T08:16:07.000Z</time>
      </trkpt>
      <trkpt lat="-41.302592" lon="174.831355">
        <ele>3.574897</ele>
        <time>2024-03-17T08:16:10.000Z</time>
      </trkpt>
      <trkpt lat="-41.303407" lon="174.831035">
        <ele>4.285626</ele>
        <time>2024-03-17T08:16:19.000Z</time>
      </trkpt>
      <trkpt lat="-41.303781" lon="174.830942">
        <ele>4.600327</ele>
        <time>2024-03-17T08:16:23.000Z</time>
      </trkpt>
      <trkpt lat="-41.303905" lon="174.830952">
        <ele>4.7034</ele>
        <time>2024-03-17T08:16:24.000Z</time>
      </trkpt>
      <trkpt lat="-41.304075" lon="174.831061">
        <ele>4.854877</ele>
        <time>2024-03-17T08:16:26.000Z</time>
      </trkpt>
      <trkpt lat="-41.304303" lon="174.831296">
        <ele>5.022937</ele>
        <time>2024-03-17T08:16:29.000Z</time>
      </trkpt>
      <trkpt lat="-41.304449" lon="174.831324">
        <ele>5.022239</ele>
        <time>2024-03-17T08:16:31.000Z</time>
      </trkpt>
      <trkpt lat="-41.305662" lon="174.831296">
        <ele>5.01708</ele>
        <time>2024-03-17T08:16:44.000Z</time>
      </trkpt>
      <trkpt lat="-41.306179" lon="174.83158">
        <ele>4.782456</ele>
        <time>2024-03-17T08:16:50.000Z</time>
      </trkpt>
      <trkpt lat="-41.306397" lon="174.831625">
        <ele>4.556258</ele>
        <time>2024-03-17T08:16:52.000Z</time>
      </trkpt>
      <trkpt lat="-41.306756" lon="174.831958">
        <ele>4.10477</ele>
        <time>2024-03-17T08:16:57.000Z</time>
      </trkpt>
      <trkpt lat="-41.307414" lon="174.832701">
        <ele>3.183583</ele>
        <time>2024-03-17T08:17:07.000Z</time>
      </trkpt>
      <trkpt lat="-41.307784" lon="174.832701">
        <ele>2.93338</ele>
        <time>2024-03-17T08:17:11.000Z</time>
      </trkpt>
      <trkpt lat="-41.307891" lon="174.832634">
        <ele>2.851859</ele>
        <time>2024-03-17T08:17:12.000Z</time>
      </trkpt>
      <trkpt lat="-41.308367" lon="174.831518">
        <ele>2.245142</ele>
        <time>2024-03-17T08:17:23.000Z</time>
      </trkpt>
      <trkpt lat="-41.310065" lon="174.830181">
        <ele>2.239435</ele>
        <time>2024-03-17T08:17:45.000Z</time>
      </trkpt>
      <trkpt lat="-41.31033" lon="174.830096">
        <ele>2.270023</ele>
        <time>2024-03-17T08:17:48.000Z</time>
      </trkpt>
      <trkpt lat="-41.311565" lon="174.82998">
        <ele>1.928629</ele>
        <time>2024-03-17T08:18:02.000Z</time>
      </trkpt>
      <trkpt lat="-41.312165" lon="174.829875">
        <ele>1.806808</ele>
        <time>2024-03-17T08:18:09.000Z</time>
      </trkpt>
      <trkpt lat="-41.312289" lon="174.829845">
        <ele>1.843026</ele>
        <time>2024-03-17T08:18:10.000Z</time>
      </trkpt>
      <trkpt lat="-41.312412" lon="174.829795">
        <ele>1.879668</ele>
        <time>2024-03-17T08:18:11.000Z</time>
      </trkpt>
      <trkpt lat="-41.312523" lon="174.829688">
        <ele>1.921298</ele>
        <time>2024-03-17T08:18:13.000Z</time>
      </trkpt>
      <trkpt lat="-41.312641" lon="174.829446">
        <ele>1.982787</ele>
        <time>2024-03-17T08:18:15.000Z</time>
      </trkpt>
      <trkpt lat="-41.312866" lon="174.828774">
        <ele>2.142455</ele>
        <time>2024-03-17T08:18:21.000Z</time>
      </trkpt>
      <trkpt lat="-41.313314" lon="174.827991">
        <ele>2.412175</ele>
        <time>2024-03-17T08:18:29.000Z</time>
      </trkpt>
      <trkpt lat="-41.313458" lon="174.827837">
        <ele>2.515188</ele>
        <time>2024-03-17T08:18:31.000Z</time>
      </trkpt>
      <trkpt lat="-41.313616" lon="174.827774">
        <ele>2.617363</ele>
        <time>2024-03-17T08:18:33.000Z</time>
      </trkpt>
      <trkpt lat="-41.314879" lon="174.827514">
        <ele>3.358027</ele>
        <time>2024-03-17T08:18:47.000Z</time>
      </trkpt>
      <trkpt lat="-41.315167" lon="174.827458">
        <ele>3.41559</ele>
        <time>2024-03-17T08:18:50.000Z</time>
      </trkpt>
      <trkpt lat="-41.315499" lon="174.827523">
        <ele>3.484864</ele>
        <time>2024-03-17T08:18:54.000Z</time>
      </trkpt>
      <trkpt lat="-41.315864" lon="174.827624">
        <ele>3.558067</ele>
        <time>2024-03-17T08:18:58.000Z</time>
      </trkpt>
      <trkpt lat="-41.31733" lon="174.827887">
        <ele>3.853404</ele>
        <time>2024-03-17T08:19:14.000Z</time>
      </trkpt>
      <trkpt lat="-41.31765" lon="174.828068">
        <ele>3.919939</ele>
        <time>2024-03-17T08:19:18.000Z</time>
      </trkpt>
      <trkpt lat="-41.318024" lon="174.828374">
        <ele>4.004538</ele>
        <time>2024-03-17T08:19:23.000Z</time>
      </trkpt>
      <trkpt lat="-41.318264" lon="174.828556">
        <ele>4.059158</ele>
        <time>2024-03-17T08:19:26.000Z</time>
      </trkpt>
      <trkpt lat="-41.318568" lon="174.828816">
        <ele>4.010587</ele>
        <time>2024-03-17T08:19:30.000Z</time>
      </trkpt>
      <trkpt lat="-41.318672" lon="174.82892">
        <ele>3.988241</ele>
        <time>2024-03-17T08:19:31.000Z</time>
      </trkpt>
      <trkpt lat="-41.319032" lon="174.829208">
        <ele>3.914791</ele>
        <time>2024-03-17T08:19:36.000Z</time>
      </trkpt>
      <trkpt lat="-41.319187" lon="174.82945">
        <ele>3.872692</ele>
        <time>2024-03-17T08:19:39.000Z</time>
      </trkpt>
      <trkpt lat="-41.319237" lon="174.82951">
        <ele>3.860226</ele>
        <time>2024-03-17T08:19:40.000Z</time>
      </trkpt>
      <trkpt lat="-41.319269" lon="174.829572">
        <ele>3.848867</ele>
        <time>2024-03-17T08:19:41.000Z</time>
      </trkpt>
      <trkpt lat="-41.319319" lon="174.82965">
        <ele>3.835581</ele>
        <time>2024-03-17T08:19:42.000Z</time>
      </trkpt>
      <trkpt lat="-41.319696" lon="174.830371">
        <ele>3.773271</ele>
        <time>2024-03-17T08:19:49.000Z</time>
      </trkpt>
      <trkpt lat="-41.319695" lon="174.830363">
        <ele>3.773756</ele>
        <time>2024-03-17T08:19:49.000Z</time>
      </trkpt>
      <trkpt lat="-41.319695" lon="174.830373">
        <ele>3.774248</ele>
        <time>2024-03-17T08:19:49.000Z</time>
      </trkpt>
      <trkpt lat="-41.319313" lon="174.829664">
        <ele>3.880408</ele>
        <time>2024-03-17T08:19:56.000Z</time>
      </trkpt>
      <trkpt lat="-41.319271" lon="174.829583">
        <ele>3.892415</ele>
        <time>2024-03-17T08:19:57.000Z</time>
      </trkpt>
      <trkpt lat="-41.319224" lon="174.829507">
        <ele>3.902682</ele>
        <time>2024-03-17T08:19:58.000Z</time>
      </trkpt>
      <trkpt lat="-41.319185" lon="174.829436">
        <ele>3.913927</ele>
        <time>2024-03-17T08:19:59.000Z</time>
      </trkpt>
      <trkpt lat="-41.319014" lon="174.82921">
        <ele>3.951947</ele>
        <time>2024-03-17T08:20:02.000Z</time>
      </trkpt>
      <trkpt lat="-41.318679" lon="174.828916">
        <ele>4.01827</ele>
        <time>2024-03-17T08:20:06.000Z</time>
      </trkpt>
      <trkpt lat="-41.318576" lon="174.828823">
        <ele>4.035688</ele>
        <time>2024-03-17T08:20:07.000Z</time>
      </trkpt>
      <trkpt lat="-41.318272" lon="174.828562">
        <ele>3.99163</ele>
        <time>2024-03-17T08:20:11.000Z</time>
      </trkpt>
      <trkpt lat="-41.318028" lon="174.82836">
        <ele>3.957992</ele>
        <time>2024-03-17T08:20:14.000Z</time>
      </trkpt>
      <trkpt lat="-41.31766" lon="174.828052">
        <ele>3.905877</ele>
        <time>2024-03-17T08:20:19.000Z</time>
      </trkpt>
      <trkpt lat="-41.317331" lon="174.827902">
        <ele>3.864891</ele>
        <time>2024-03-17T08:20:23.000Z</time>
      </trkpt>
      <trkpt lat="-41.315852" lon="174.827625">
        <ele>3.586363</ele>
        <time>2024-03-17T08:20:40.000Z</time>
      </trkpt>
      <trkpt lat="-41.315505" lon="174.827523">
        <ele>3.510301</ele>
        <time>2024-03-17T08:20:44.000Z</time>
      </trkpt>
      <trkpt lat="-41.315167" lon="174.827458">
        <ele>3.426712</ele>
        <time>2024-03-17T08:20:48.000Z</time>
      </trkpt>
      <trkpt lat="-41.314866" lon="174.827516">
        <ele>3.279209</ele>
        <time>2024-03-17T08:20:51.000Z</time>
      </trkpt>
      <trkpt lat="-41.313618" lon="174.827774">
        <ele>2.62486</ele>
        <time>2024-03-17T08:21:05.000Z</time>
      </trkpt>
      <trkpt lat="-41.313451" lon="174.827841">
        <ele>2.534904</ele>
        <time>2024-03-17T08:21:07.000Z</time>
      </trkpt>
      <trkpt lat="-41.313311" lon="174.828007">
        <ele>2.458031</ele>
        <time>2024-03-17T08:21:09.000Z</time>
      </trkpt>
      <trkpt lat="-41.312864" lon="174.828771">
        <ele>2.143273</ele>
        <time>2024-03-17T08:21:17.000Z</time>
      </trkpt>
      <trkpt lat="-41.312645" lon="174.829462">
        <ele>1.911904</ele>
        <time>2024-03-17T08:21:23.000Z</time>
      </trkpt>
      <trkpt lat="-41.312526" lon="174.829692">
        <ele>1.822787</ele>
        <time>2024-03-17T08:21:25.000Z</time>
      </trkpt>
      <trkpt lat="-41.31242" lon="174.829786">
        <ele>1.762452</ele>
        <time>2024-03-17T08:21:26.000Z</time>
      </trkpt>
      <trkpt lat="-41.312284" lon="174.829837">
        <ele>1.79443</ele>
        <time>2024-03-17T08:21:28.000Z</time>
      </trkpt>
      <trkpt lat="-41.312175" lon="174.829867">
        <ele>1.826593</ele>
        <time>2024-03-17T08:21:29.000Z</time>
      </trkpt>
      <trkpt lat="-41.311571" lon="174.829976">
        <ele>1.985381</ele>
        <time>2024-03-17T08:21:36.000Z</time>
      </trkpt>
      <trkpt lat="-41.310319" lon="174.830105">
        <ele>2.194129</ele>
        <time>2024-03-17T08:21:50.000Z</time>
      </trkpt>
      <trkpt lat="-41.310069" lon="174.830179">
        <ele>2.166321</ele>
        <time>2024-03-17T08:21:53.000Z</time>
      </trkpt>
      <trkpt lat="-41.308375" lon="174.83152">
        <ele>2.309594</ele>
        <time>2024-03-17T08:22:15.000Z</time>
      </trkpt>
      <trkpt lat="-41.307904" lon="174.832638">
        <ele>2.670054</ele>
        <time>2024-03-17T08:22:26.000Z</time>
      </trkpt>
      <trkpt lat="-41.307775" lon="174.832708">
        <ele>2.745621</ele>
        <time>2024-03-17T08:22:28.000Z</time>
      </trkpt>
      <trkpt lat="-41.307418" lon="174.832701">
        <ele>3.169674</ele>
        <time>2024-03-17T08:22:32.000Z</time>
      </trkpt>
      <trkpt lat="-41.306745" lon="174.83195">
        <ele>4.208794</ele>
        <time>2024-03-17T08:22:42.000Z</time>
      </trkpt>
      <trkpt lat="-41.306398" lon="174.831635">
        <ele>4.718098</ele>
        <time>2024-03-17T08:22:47.000Z</time>
      </trkpt>
      <trkpt lat="-41.306174" lon="174.831592">
        <ele>4.86248</ele>
        <time>2024-03-17T08:22:50.000Z</time>
      </trkpt>
      <trkpt lat="-41.305649" lon="174.831291">
        <ele>4.966059</ele>
        <time>2024-03-17T08:22:56.000Z</time>
      </trkpt>
      <trkpt lat="-41.304449" lon="174.831322">
        <ele>5.109421</ele>
        <time>2024-03-17T08:23:09.000Z</time>
      </trkpt>
      <trkpt lat="-41.30429" lon="174.831293">
        <ele>4.990056</ele>
        <time>2024-03-17T08:23:11.000Z</time>
      </trkpt>
      <trkpt lat="-41.304072" lon="174.831051">
        <ele>4.78166</ele>
        <time>2024-03-17T08:23:14.000Z</time>
      </trkpt>
      <trkpt lat="-41.303902" lon="174.830951">
        <ele>4.649384</ele>
        <time>2024-03-17T08:23:16.000Z</time>
      </trkpt>
      <trkpt lat="-41.303789" lon="174.830927">
        <ele>4.559366</ele>
        <time>2024-03-17T08:23:17.000Z</time>
      </trkpt>
      <trkpt lat="-41.303418" lon="174.831036">
        <ele>4.284508</ele>
        <time>2024-03-17T08:23:21.000Z</time>
      </trkpt>
      <trkpt lat="-41.302582" lon="174.831358">
        <ele>3.533858</ele>
        <time>2024-03-17T08:23:31.000Z</time>
      </trkpt>
      <trkpt lat="-41.302351" lon="174.831412">
        <ele>3.237806</ele>
        <time>2024-03-17T08:23:34.000Z</time>
      </trkpt>
      <trkpt lat="-41.301144" lon="174.83151">
        <ele>1.805752</ele>
        <time>2024-03-17T08:23:47.000Z</time>
      </trkpt>
      <trkpt lat="-41.301059" lon="174.831545">
        <ele>1.713138</ele>
        <time>2024-03-17T08:23:48.000Z</time>
      </trkpt>
      <trkpt lat="-41.300732" lon="174.83179">
        <ele>1.784358</ele>
        <time>2024-03-17T08:23:52.000Z</time>
      </trkpt>
      <trkpt lat="-41.300569" lon="174.831781">
        <ele>1.814131</ele>
        <time>2024-03-17T08:23:54.000Z</time>
      </trkpt>
      <trkpt lat="-41.30023" lon="174.831733">
        <ele>1.880307</ele>
        <time>2024-03-17T08:23:58.000Z</time>
      </trkpt>
      <trkpt lat="-41.300146" lon="174.831749">
        <ele>1.894408</ele>
        <time>2024-03-17T08:23:59.000Z</time>
      </trkpt>
      <trkpt lat="-41.299943" lon="174.831876">
        <ele>1.93811</ele>
        <time>2024-03-17T08:24:01.000Z</time>
      </trkpt>
      <trkpt lat="-41.299676" lon="174.832089">
        <ele>1.996735</ele>
        <time>2024-03-17T08:24:04.000Z</time>
      </trkpt>
      <trkpt lat="-41.299392" lon="174.832395">
        <ele>2.166997</ele>
        <time>2024-03-17T08:24:08.000Z</time>
      </trkpt>
      <trkpt lat="-41.299323" lon="174.832419">
        <ele>2.274015</ele>
        <time>2024-03-17T08:24:09.000Z</time>
      </trkpt>
      <trkpt lat="-41.299138" lon="174.832432">
        <ele>2.530788</ele>
        <time>2024-03-17T08:24:11.000Z</time>
      </trkpt>
      <trkpt lat="-41.298445" lon="174.832296">
        <ele>3.506171</ele>
        <time>2024-03-17T08:24:19.000Z</time>
      </trkpt>
      <trkpt lat="-41.297838" lon="174.832343">
        <ele>4.373018</ele>
        <time>2024-03-17T08:24:26.000Z</time>
      </trkpt>
      <trkpt lat="-41.297795" lon="174.832348">
        <ele>4.418235</ele>
        <time>2024-03-17T08:24:26.000Z</time>
      </trkpt>
      <trkpt lat="-41.297401" lon="174.832398">
        <ele>4.683216</ele>
        <time>2024-03-17T08:24:30.000Z</time>
      </trkpt>
      <trkpt lat="-41.297364" lon="174.832399">
        <ele>4.695672</ele>
        <time>2024-03-17T08:24:30.000Z</time>
      </trkpt>
      <trkpt lat="-41.297146" lon="174.832481">
        <ele>4.777117</ele>
        <time>2024-03-17T08:24:33.000Z</time>
      </trkpt>
      <trkpt lat="-41.2969" lon="174.832684">
        <ele>4.879846</ele>
        <time>2024-03-17T08:24:36.000Z</time>
      </trkpt>
      <trkpt lat="-41.296637" lon="174.833079">
        <ele>5.016993</ele>
        <time>2024-03-17T08:24:40.000Z</time>
      </trkpt>
      <trkpt lat="-41.296551" lon="174.833308">
        <ele>5.085796</ele>
        <time>2024-03-17T08:24:42.000Z</time>
      </trkpt>
      <trkpt lat="-41.29651" lon="174.833526">
        <ele>5.145394</ele>
        <time>2024-03-17T08:24:44.000Z</time>
      </trkpt>
      <trkpt lat="-41.296501" lon="174.833748">
        <ele>5.205087</ele>
        <time>2024-03-17T08:24:46.000Z</time>
      </trkpt>
      <trkpt lat="-41.296546" lon="174.83416">
        <ele>4.981395</ele>
        <time>2024-03-17T08:24:49.000Z</time>
      </trkpt>
      <trkpt lat="-41.296717" lon="174.835013">
        <ele>4.428069</ele>
        <time>2024-03-17T08:24:56.000Z</time>
      </trkpt>
      <trkpt lat="-41.29673" lon="174.835181">
        <ele>4.315518</ele>
        <time>2024-03-17T08:24:57.000Z</time>
      </trkpt>
      <trkpt lat="-41.296691" lon="174.835359">
        <ele>4.200744</ele>
        <time>2024-03-17T08:24:59.000Z</time>
      </trkpt>
      <trkpt lat="-41.296616" lon="174.835475">
        <ele>4.101892</ele>
        <time>2024-03-17T08:25:00.000Z</time>
      </trkpt>
      <trkpt lat="-41.296207" lon="174.835657">
        <ele>3.739974</ele>
        <time>2024-03-17T08:25:05.000Z</time>
      </trkpt>
      <trkpt lat="-41.29605" lon="174.835759">
        <ele>3.941027</ele>
        <time>2024-03-17T08:25:07.000Z</time>
      </trkpt>
      <trkpt lat="-41.29585" lon="174.835993">
        <ele>4.3914</ele>
        <time>2024-03-17T08:25:10.000Z</time>
      </trkpt>
      <trkpt lat="-41.295725" lon="174.836077">
        <ele>4.634293</ele>
        <time>2024-03-17T08:25:12.000Z</time>
      </trkpt>
      <trkpt lat="-41.295474" lon="174.836142">
        <ele>5.039234</ele>
        <time>2024-03-17T08:25:15.000Z</time>
      </trkpt>
      <trkpt lat="-41.294185" lon="174.83569">
        <ele>7.881522</ele>
        <time>2024-03-17T08:25:30.000Z</time>
      </trkpt>
      <trkpt lat="-41.293986" lon="174.835553">
        <ele>8.6105</ele>
        <time>2024-03-17T08:25:32.000Z</time>
      </trkpt>
      <trkpt lat="-41.293836" lon="174.835317">
        <ele>9.397475</ele>
        <time>2024-03-17T08:25:35.000Z</time>
      </trkpt>
      <trkpt lat="-41.293403" lon="174.834073">
        <ele>12.815453</ele>
        <time>2024-03-17T08:25:46.000Z</time>
      </trkpt>
      <trkpt lat="-41.293159" lon="174.833114">
        <ele>12.332743</ele>
        <time>2024-03-17T08:25:54.000Z</time>
      </trkpt>
      <trkpt lat="-41.293008" lon="174.832801">
        <ele>12.155647</ele>
        <time>2024-03-17T08:25:57.000Z</time>
      </trkpt>
      <trkpt lat="-41.292799" lon="174.832559">
        <ele>11.981648</ele>
        <time>2024-03-17T08:26:00.000Z</time>
      </trkpt>
      <trkpt lat="-41.29254" lon="174.832487">
        <ele>11.815589</ele>
        <time>2024-03-17T08:26:03.000Z</time>
      </trkpt>
      <trkpt lat="-41.292425" lon="174.832483">
        <ele>11.738431</ele>
        <time>2024-03-17T08:26:04.000Z</time>
      </trkpt>
      <trkpt lat="-41.292297" lon="174.832528">
        <ele>11.600737</ele>
        <time>2024-03-17T08:26:05.000Z</time>
      </trkpt>
      <trkpt lat="-41.292006" lon="174.832833">
        <ele>11.051453</ele>
        <time>2024-03-17T08:26:09.000Z</time>
      </trkpt>
      <trkpt lat="-41.291923" lon="174.832877">
        <ele>10.918335</ele>
        <time>2024-03-17T08:26:10.000Z</time>
      </trkpt>
      <trkpt lat="-41.291752" lon="174.8329">
        <ele>10.679911</ele>
        <time>2024-03-17T08:26:12.000Z</time>
      </trkpt>
      <trkpt lat="-41.291371" lon="174.832893">
        <ele>10.115167</ele>
        <time>2024-03-17T08:26:16.000Z</time>
      </trkpt>
      <trkpt lat="-41.290706" lon="174.832657">
        <ele>9.09308</ele>
        <time>2024-03-17T08:26:24.000Z</time>
      </trkpt>
      <trkpt lat="-41.290441" lon="174.832627">
        <ele>9.913473</ele>
        <time>2024-03-17T08:26:27.000Z</time>
      </trkpt>
      <trkpt lat="-41.29022" lon="174.832674">
        <ele>10.774032</ele>
        <time>2024-03-17T08:26:29.000Z</time>
      </trkpt>
      <trkpt lat="-41.289991" lon="174.832775">
        <ele>11.749077</ele>
        <time>2024-03-17T08:26:32.000Z</time>
      </trkpt>
      <trkpt lat="-41.289427" lon="174.833213">
        <ele>14.406447</ele>
        <time>2024-03-17T08:26:39.000Z</time>
      </trkpt>
      <trkpt lat="-41.289322" lon="174.833235">
        <ele>14.850879</ele>
        <time>2024-03-17T08:26:40.000Z</time>
      </trkpt>
      <trkpt lat="-41.289222" lon="174.833213">
        <ele>15.248853</ele>
        <time>2024-03-17T08:26:41.000Z</time>
      </trkpt>
      <trkpt lat="-41.289134" lon="174.833072">
        <ele>15.822438</ele>
        <time>2024-03-17T08:26:43.000Z</time>
      </trkpt>
      <trkpt lat="-41.289077" lon="174.832923">
        <ele>16.389174</ele>
        <time>2024-03-17T08:26:44.000Z</time>
      </trkpt>
      <trkpt lat="-41.288946" lon="174.831545">
        <ele>24.12093</ele>
        <time>2024-03-17T08:26:56.000Z</time>
      </trkpt>
      <trkpt lat="-41.288927" lon="174.830783">
        <ele>28.289518</ele>
        <time>2024-03-17T08:27:02.000Z</time>
      </trkpt>
      <trkpt lat="-41.288872" lon="174.830325">
        <ele>29.360809</ele>
        <time>2024-03-17T08:27:06.000Z</time>
      </trkpt>
      <trkpt lat="-41.288752" lon="174.829894">
        <ele>28.888115</ele>
        <time>2024-03-17T08:27:10.000Z</time>
      </trkpt>
      <trkpt lat="-41.288649" lon="174.829694">
        <ele>28.643947</ele>
        <time>2024-03-17T08:27:12.000Z</time>
      </trkpt>
      <trkpt lat="-41.288444" lon="174.82939">
        <ele>28.224717</ele>
        <time>2024-03-17T08:27:15.000Z</time>
      </trkpt>
      <trkpt lat="-41.288075" lon="174.828953">
        <ele>27.567928</ele>
        <time>2024-03-17T08:27:20.000Z</time>
      </trkpt>
      <trkpt lat="-41.286988" lon="174.828057">
        <ele>22.734589</ele>
        <time>2024-03-17T08:27:34.000Z</time>
      </trkpt>
      <trkpt lat="-41.286524" lon="174.827406">
        <ele>19.721162</ele>
        <time>2024-03-17T08:27:42.000Z</time>
      </trkpt>
      <trkpt lat="-41.286371" lon="174.827263">
        <ele>19.065535</ele>
        <time>2024-03-17T08:27:44.000Z</time>
      </trkpt>
      <trkpt lat="-41.285614" lon="174.827105">
        <ele>18.57766</ele>
        <time>2024-03-17T08:27:53.000Z</time>
      </trkpt>
      <trkpt lat="-41.285385" lon="174.826992">
        <ele>18.4346</ele>
        <time>2024-03-17T08:27:56.000Z</time>
      </trkpt>
      <trkpt lat="-41.284384" lon="174.826276">
        <ele>19.988857</ele>
        <time>2024-03-17T08:28:09.000Z</time>
      </trkpt>
      <trkpt lat="-41.284304" lon="174.826185">
        <ele>20.543003</ele>
        <time>2024-03-17T08:28:10.000Z</time>
      </trkpt>
      <trkpt lat="-41.284279" lon="174.826079">
        <ele>20.933773</ele>
        <time>2024-03-17T08:28:11.000Z</time>
      </trkpt>
      <trkpt lat="-41.28429" lon="174.825965">
        <ele>21.369765</ele>
        <time>2024-03-17T08:28:12.000Z</time>
      </trkpt>
      <trkpt lat="-41.284333" lon="174.825852">
        <ele>21.900726</ele>
        <time>2024-03-17T08:28:13.000Z</time>
      </trkpt>
      <trkpt lat="-41.28463" lon="174.825478">
        <ele>23.9838</ele>
        <time>2024-03-17T08:28:18.000Z</time>
      </trkpt>
      <trkpt lat="-41.284777" lon="174.825343">
        <ele>24.828458</ele>
        <time>2024-03-17T08:28:20.000Z</time>
      </trkpt>
      <trkpt lat="-41.284851" lon="174.825309">
        <ele>25.266463</ele>
        <time>2024-03-17T08:28:21.000Z</time>
      </trkpt>
      <trkpt lat="-41.284942" lon="174.825299">
        <ele>25.733154</ele>
        <time>2024-03-17T08:28:22.000Z</time>
      </trkpt>
      <trkpt lat="-41.285571" lon="174.825302">
        <ele>29.317991</ele>
        <time>2024-03-17T08:28:29.000Z</time>
      </trkpt>
      <trkpt lat="-41.285922" lon="174.825185">
        <ele>31.536322</ele>
        <time>2024-03-17T08:28:33.000Z</time>
      </trkpt>
      <trkpt lat="-41.286296" lon="174.825157">
        <ele>33.789753</ele>
        <time>2024-03-17T08:28:37.000Z</time>
      </trkpt>
      <trkpt lat="-41.286412" lon="174.825117">
        <ele>34.579692</ele>
        <time>2024-03-17T08:28:38.000Z</time>
      </trkpt>
      <trkpt lat="-41.286634" lon="174.824961">
        <ele>36.085371</ele>
        <time>2024-03-17T08:28:41.000Z</time>
      </trkpt>
      <trkpt lat="-41.286875" lon="174.824631">
        <ele>38.139281</ele>
        <time>2024-03-17T08:28:45.000Z</time>
      </trkpt>
      <trkpt lat="-41.287257" lon="174.824309">
        <ele>38.066387</ele>
        <time>2024-03-17T08:28:50.000Z</time>
      </trkpt>
      <trkpt lat="-41.287582" lon="174.824037">
        <ele>38.002558</ele>
        <time>2024-03-17T08:28:54.000Z</time>
      </trkpt>
      <trkpt lat="-41.287249" lon="174.824302">
        <ele>37.938723</ele>
        <time>2024-03-17T08:28:58.000Z</time>
      </trkpt>
      <trkpt lat="-41.286875" lon="174.824622">
        <ele>37.865808</ele>
        <time>2024-03-17T08:29:03.000Z</time>
      </trkpt>
      <trkpt lat="-41.286632" lon="174.824955">
        <ele>36.263899</ele>
        <time>2024-03-17T08:29:07.000Z</time>
      </trkpt>
      <trkpt lat="-41.286412" lon="174.825116">
        <ele>34.711917</ele>
        <time>2024-03-17T08:29:10.000Z</time>
      </trkpt>
      <trkpt lat="-41.286289" lon="174.825149">
        <ele>33.897672</ele>
        <time>2024-03-17T08:29:11.000Z</time>
      </trkpt>
      <trkpt lat="-41.28593" lon="174.825189">
        <ele>31.574927</ele>
        <time>2024-03-17T08:29:15.000Z</time>
      </trkpt>
      <trkpt lat="-41.285574" lon="174.825305">
        <ele>29.288329</ele>
        <time>2024-03-17T08:29:19.000Z</time>
      </trkpt>
      <trkpt lat="-41.284939" lon="174.825297">
        <ele>25.576058</ele>
        <time>2024-03-17T08:29:26.000Z</time>
      </trkpt>
      <trkpt lat="-41.284854" lon="174.825319">
        <ele>25.133341</ele>
        <time>2024-03-17T08:29:27.000Z</time>
      </trkpt>
      <trkpt lat="-41.28478" lon="174.825354">
        <ele>24.717825</ele>
        <time>2024-03-17T08:29:28.000Z</time>
      </trkpt>
      <trkpt lat="-41.284638" lon="174.825463">
        <ele>23.916523</ele>
        <time>2024-03-17T08:29:30.000Z</time>
      </trkpt>
      <trkpt lat="-41.284346" lon="174.825849">
        <ele>21.940389</ele>
        <time>2024-03-17T08:29:35.000Z</time>
      </trkpt>
      <trkpt lat="-41.284298" lon="174.825975">
        <ele>21.436685</ele>
        <time>2024-03-17T08:29:36.000Z</time>
      </trkpt>
      <trkpt lat="-41.284295" lon="174.826091">
        <ele>21.023078</ele>
        <time>2024-03-17T08:29:37.000Z</time>
      </trkpt>
      <trkpt lat="-41.284312" lon="174.826193">
        <ele>20.652363</ele>
        <time>2024-03-17T08:29:38.000Z</time>
      </trkpt>
      <trkpt lat="-41.284384" lon="174.826291">
        <ele>20.126671</ele>
        <time>2024-03-17T08:29:39.000Z</time>
      </trkpt>
      <trkpt lat="-41.285383" lon="174.827006">
        <ele>18.359221</ele>
        <time>2024-03-17T08:29:52.000Z</time>
      </trkpt>
      <trkpt lat="-41.285615" lon="174.827094">
        <ele>18.551709</ele>
        <time>2024-03-17T08:29:55.000Z</time>
      </trkpt>
      <trkpt lat="-41.286361" lon="174.827252">
        <ele>19.208113</ele>
        <time>2024-03-17T08:30:03.000Z</time>
      </trkpt>
      <trkpt lat="-41.286531" lon="174.827416">
        <ele>19.575687</ele>
        <time>2024-03-17T08:30:05.000Z</time>
      </trkpt>
      <trkpt lat="-41.286985" lon="174.828059">
        <ele>22.673569</ele>
        <time>2024-03-17T08:30:12.000Z</time>
      </trkpt>
      <trkpt lat="-41.288085" lon="174.828968">
        <ele>27.813915</ele>
        <time>2024-03-17T08:30:26.000Z</time>
      </trkpt>
      <trkpt lat="-41.288457" lon="174.829391">
        <ele>28.260368</ele>
        <time>2024-03-17T08:30:31.000Z</time>
      </trkpt>
      <trkpt lat="-41.288664" lon="174.829686">
        <ele>28.545332</ele>
        <time>2024-03-17T08:30:34.000Z</time>
      </trkpt>
      <trkpt lat="-41.288761" lon="174.829885">
        <ele>28.71131</ele>
        <time>2024-03-17T08:30:36.000Z</time>
      </trkpt>
      <trkpt lat="-41.288877" lon="174.830329">
        <ele>29.032619</ele>
        <time>2024-03-17T08:30:40.000Z</time>
      </trkpt>
      <trkpt lat="-41.288937" lon="174.830787">
        <ele>28.572462</ele>
        <time>2024-03-17T08:30:44.000Z</time>
      </trkpt>
      <trkpt lat="-41.288963" lon="174.831536">
        <ele>24.296605</ele>
        <time>2024-03-17T08:30:50.000Z</time>
      </trkpt>
      <trkpt lat="-41.289092" lon="174.832912">
        <ele>16.365855</ele>
        <time>2024-03-17T08:31:02.000Z</time>
      </trkpt>
      <trkpt lat="-41.289119" lon="174.833085">
        <ele>15.502674</ele>
        <time>2024-03-17T08:31:03.000Z</time>
      </trkpt>
      <trkpt lat="-41.289221" lon="174.83322">
        <ele>14.97754</ele>
        <time>2024-03-17T08:31:05.000Z</time>
      </trkpt>
      <trkpt lat="-41.28932" lon="174.833237">
        <ele>14.61319</ele>
        <time>2024-03-17T08:31:06.000Z</time>
      </trkpt>
      <trkpt lat="-41.289418" lon="174.833211">
        <ele>14.206287</ele>
        <time>2024-03-17T08:31:07.000Z</time>
      </trkpt>
      <trkpt lat="-41.289992" lon="174.832766">
        <ele>11.773403</ele>
        <time>2024-03-17T08:31:14.000Z</time>
      </trkpt>
      <trkpt lat="-41.290222" lon="174.832671">
        <ele>10.880735</ele>
        <time>2024-03-17T08:31:17.000Z</time>
      </trkpt>
      <trkpt lat="-41.290436" lon="174.832634">
        <ele>10.092871</ele>
        <time>2024-03-17T08:31:19.000Z</time>
      </trkpt>
      <trkpt lat="-41.290718" lon="174.83265">
        <ele>9.057052</ele>
        <time>2024-03-17T08:31:22.000Z</time>
      </trkpt>
      <trkpt lat="-41.291369" lon="174.832902">
        <ele>10.03932</ele>
        <time>2024-03-17T08:31:30.000Z</time>
      </trkpt>
      <trkpt lat="-41.291757" lon="174.832901">
        <ele>10.665446</ele>
        <time>2024-03-17T08:31:34.000Z</time>
      </trkpt>
      <trkpt lat="-41.291914" lon="174.832878">
        <ele>10.929781</ele>
        <time>2024-03-17T08:31:36.000Z</time>
      </trkpt>
      <trkpt lat="-41.291999" lon="174.832832">
        <ele>11.077366</ele>
        <time>2024-03-17T08:31:37.000Z</time>
      </trkpt>
      <trkpt lat="-41.292294" lon="174.832535">
        <ele>11.686355</ele>
        <time>2024-03-17T08:31:41.000Z</time>
      </trkpt>
      <trkpt lat="-41.29242" lon="174.832483">
        <ele>11.913062</ele>
        <time>2024-03-17T08:31:42.000Z</time>
      </trkpt>
      <trkpt lat="-41.292553" lon="174.832482">
        <ele>11.970046</ele>
        <time>2024-03-17T08:31:43.000Z</time>
      </trkpt>
      <trkpt lat="-41.292798" lon="174.832562">
        <ele>12.074671</ele>
        <time>2024-03-17T08:31:46.000Z</time>
      </trkpt>
      <trkpt lat="-41.293022" lon="174.832801">
        <ele>12.184315</ele>
        <time>2024-03-17T08:31:49.000Z</time>
      </trkpt>
      <trkpt lat="-41.293173" lon="174.833105">
        <ele>12.295901</ele>
        <time>2024-03-17T08:31:52.000Z</time>
      </trkpt>
      <trkpt lat="-41.293403" lon="174.834072">
        <ele>12.60005</ele>
        <time>2024-03-17T08:32:00.000Z</time>
      </trkpt>
      <trkpt lat="-41.293852" lon="174.835318">
        <ele>9.443146</ele>
        <time>2024-03-17T08:32:12.000Z</time>
      </trkpt>
      <trkpt lat="-41.293993" lon="174.835569">
        <ele>8.642665</ele>
        <time>2024-03-17T08:32:15.000Z</time>
      </trkpt>
      <trkpt lat="-41.294172" lon="174.835695">
        <ele>7.901186</ele>
        <time>2024-03-17T08:32:17.000Z</time>
      </trkpt>
      <trkpt lat="-41.295487" lon="174.836145">
        <ele>5.053969</ele>
        <time>2024-03-17T08:32:32.000Z</time>
      </trkpt>
      <trkpt lat="-41.295715" lon="174.836075">
        <ele>4.690543</ele>
        <time>2024-03-17T08:32:35.000Z</time>
      </trkpt>
      <trkpt lat="-41.295839" lon="174.836">
        <ele>4.47254</ele>
        <time>2024-03-17T08:32:37.000Z</time>
      </trkpt>
      <trkpt lat="-41.296047" lon="174.835765">
        <ele>4.068349</ele>
        <time>2024-03-17T08:32:40.000Z</time>
      </trkpt>
      <trkpt lat="-41.296204" lon="174.83565">
        <ele>3.791507</ele>
        <time>2024-03-17T08:32:42.000Z</time>
      </trkpt>
      <trkpt lat="-41.296621" lon="174.835469">
        <ele>4.062144</ele>
        <time>2024-03-17T08:32:47.000Z</time>
      </trkpt>
      <trkpt lat="-41.296709" lon="174.835356">
        <ele>4.163529</ele>
        <time>2024-03-17T08:32:48.000Z</time>
      </trkpt>
      <trkpt lat="-41.296735" lon="174.835189">
        <ele>4.281262</ele>
        <time>2024-03-17T08:32:49.000Z</time>
      </trkpt>
      <trkpt lat="-41.296724" lon="174.83501">
        <ele>4.396697</ele>
        <time>2024-03-17T08:32:51.000Z</time>
      </trkpt>
      <trkpt lat="-41.296556" lon="174.83416">
        <ele>4.96419</ele>
        <time>2024-03-17T08:32:58.000Z</time>
      </trkpt>
      <trkpt lat="-41.296503" lon="174.833754">
        <ele>5.229844</ele>
        <time>2024-03-17T08:33:01.000Z</time>
      </trkpt>
      <trkpt lat="-41.296508" lon="174.833531">
        <ele>5.225112</ele>
        <time>2024-03-17T08:33:03.000Z</time>
      </trkpt>
      <trkpt lat="-41.29655" lon="174.833307">
        <ele>5.148626</ele>
        <time>2024-03-17T08:33:05.000Z</time>
      </trkpt>
      <trkpt lat="-41.296637" lon="174.833081">
        <ele>5.060367</ele>
        <time>2024-03-17T08:33:07.000Z</time>
      </trkpt>
      <trkpt lat="-41.296903" lon="174.832682">
        <ele>4.884395</ele>
        <time>2024-03-17T08:33:11.000Z</time>
      </trkpt>
      <trkpt lat="-41.297137" lon="174.832477">
        <ele>4.752575</ele>
        <time>2024-03-17T08:33:14.000Z</time>
      </trkpt>
      <trkpt lat="-41.297376" lon="174.832401">
        <ele>4.648078</ele>
        <time>2024-03-17T08:33:17.000Z</time>
      </trkpt>
      <trkpt lat="-41.297412" lon="174.832385">
        <ele>4.632093</ele>
        <time>2024-03-17T08:33:17.000Z</time>
      </trkpt>
      <trkpt lat="-41.297793" lon="174.832352">
        <ele>4.421585</ele>
        <time>2024-03-17T08:33:21.000Z</time>
      </trkpt>
      <trkpt lat="-41.297842" lon="174.832341">
        <ele>4.376811</ele>
        <time>2024-03-17T08:33:22.000Z</time>
      </trkpt>
      <trkpt lat="-41.298444" lon="174.832299">
        <ele>3.518673</ele>
        <time>2024-03-17T08:33:29.000Z</time>
      </trkpt>
      <trkpt lat="-41.299124" lon="174.832428">
        <ele>2.553084</ele>
        <time>2024-03-17T08:33:37.000Z</time>
      </trkpt>
      <trkpt lat="-41.299318" lon="174.832417">
        <ele>2.298901</ele>
        <time>2024-03-17T08:33:39.000Z</time>
      </trkpt>
      <trkpt lat="-41.299391" lon="174.832396">
        <ele>2.192942</ele>
        <time>2024-03-17T08:33:40.000Z</time>
      </trkpt>
      <trkpt lat="-41.299683" lon="174.832088">
        <ele>1.940546</ele>
        <time>2024-03-17T08:33:44.000Z</time>
      </trkpt>
      <trkpt lat="-41.299938" lon="174.831877">
        <ele>1.910539</ele>
        <time>2024-03-17T08:33:47.000Z</time>
      </trkpt>
      <trkpt lat="-41.300153" lon="174.831745">
        <ele>1.888151</ele>
        <time>2024-03-17T08:33:50.000Z</time>
      </trkpt>
      <trkpt lat="-41.30023" lon="174.831723">
        <ele>1.88093</ele>
        <time>2024-03-17T08:33:51.000Z</time>
      </trkpt>
      <trkpt lat="-41.300567" lon="174.831794">
        <ele>1.847061</ele>
        <time>2024-03-17T08:33:55.000Z</time>
      </trkpt>
      <trkpt lat="-41.30073" lon="174.831788">
        <ele>1.831816</ele>
        <time>2024-03-17T08:33:57.000Z</time>
      </trkpt>
      <trkpt lat="-41.301061" lon="174.831547">
        <ele>1.795347</ele>
        <time>2024-03-17T08:34:01.000Z</time>
      </trkpt>
      <trkpt lat="-41.301149" lon="174.831523">
        <ele>1.785905</ele>
        <time>2024-03-17T08:34:02.000Z</time>
      </trkpt>
      <trkpt lat="-41.302336" lon="174.831398">
        <ele>3.217496</ele>
        <time>2024-03-17T08:34:15.000Z</time>
      </trkpt>
      <trkpt lat="-41.302589" lon="174.831346">
        <ele>3.514639</ele>
        <time>2024-03-17T08:34:18.000Z</time>
      </trkpt>
      <trkpt lat="-41.303405" lon="174.831038">
        <ele>4.289807</ele>
        <time>2024-03-17T08:34:27.000Z</time>
      </trkpt>
      <trkpt lat="-41.303774" lon="174.83094">
        <ele>4.551688</ele>
        <time>2024-03-17T08:34:31.000Z</time>
      </trkpt>
      <trkpt lat="-41.303908" lon="174.830956">
        <ele>4.637447</ele>
        <time>2024-03-17T08:34:32.000Z</time>
      </trkpt>
      <trkpt lat="-41.304069" lon="174.831062">
        <ele>4.763497</ele>
        <time>2024-03-17T08:34:34.000Z</time>
      </trkpt>
      <trkpt lat="-41.304294" lon="174.831306">
        <ele>4.962053</ele>
        <time>2024-03-17T08:34:37.000Z</time>
      </trkpt>
      <trkpt lat="-41.304462" lon="174.831319">
        <ele>5.075798</ele>
        <time>2024-03-17T08:34:39.000Z</time>
      </trkpt>
      <trkpt lat="-41.305651" lon="174.831294">
        <ele>4.957158</ele>
        <time>2024-03-17T08:34:52.000Z</time>
      </trkpt>
      <trkpt lat="-41.306175" lon="174.831589">
        <ele>4.828075</ele>
        <time>2024-03-17T08:34:58.000Z</time>
      </trkpt>
      <trkpt lat="-41.306404" lon="174.831632">
        <ele>4.759635</ele>
        <time>2024-03-17T08:35:01.000Z</time>
      </trkpt>
      <trkpt lat="-41.306743" lon="174.831959">
        <ele>4.24154</ele>
        <time>2024-03-17T08:35:06.000Z</time>
      </trkpt>
      <trkpt lat="-41.307424" lon="174.832702">
        <ele>3.184485</ele>
        <time>2024-03-17T08:35:16.000Z</time>
      </trkpt>
      <trkpt lat="-41.307777" lon="174.832702">
        <ele>2.753121</ele>
        <time>2024-03-17T08:35:20.000Z</time>
      </trkpt>
      <trkpt lat="-41.307906" lon="174.832633">
        <ele>2.607166</ele>
        <time>2024-03-17T08:35:22.000Z</time>
      </trkpt>
      <trkpt lat="-41.30838" lon="174.831528">
        <ele>2.308652</ele>
        <time>2024-03-17T08:35:33.000Z</time>
      </trkpt>
      <trkpt lat="-41.310066" lon="174.830177">
        <ele>2.152057</ele>
        <time>2024-03-17T08:35:55.000Z</time>
      </trkpt>
      <trkpt lat="-41.310316" lon="174.830113">
        <ele>2.174184</ele>
        <time>2024-03-17T08:35:58.000Z</time>
      </trkpt>
      <trkpt lat="-41.311557" lon="174.829993">
        <ele>1.997681</ele>
        <time>2024-03-17T08:36:12.000Z</time>
      </trkpt>
      <trkpt lat="-41.312165" lon="174.829876">
        <ele>1.846001</ele>
        <time>2024-03-17T08:36:19.000Z</time>
      </trkpt>
      <trkpt lat="-41.312297" lon="174.829849">
        <ele>1.815289</ele>
        <time>2024-03-17T08:36:20.000Z</time>
      </trkpt>
      <trkpt lat="-41.312407" lon="174.82979">
        <ele>1.784215</ele>
        <time>2024-03-17T08:36:21.000Z</time>
      </trkpt>
      <trkpt lat="-41.312523" lon="174.829691">
        <ele>1.790324</ele>
        <time>2024-03-17T08:36:23.000Z</time>
      </trkpt>
      <trkpt lat="-41.312656" lon="174.829462">
        <ele>1.886114</ele>
        <time>2024-03-17T08:36:25.000Z</time>
      </trkpt>
      <trkpt lat="-41.312856" lon="174.828776">
        <ele>2.134814</ele>
        <time>2024-03-17T08:36:31.000Z</time>
      </trkpt>
      <trkpt lat="-41.313324" lon="174.828007">
        <ele>2.473104</ele>
        <time>2024-03-17T08:36:39.000Z</time>
      </trkpt>
      <trkpt lat="-41.313453" lon="174.82785">
        <ele>2.553267</ele>
        <time>2024-03-17T08:36:41.000Z</time>
      </trkpt>
      <trkpt lat="-41.313625" lon="174.827787">
        <ele>2.637158</ele>
        <time>2024-03-17T08:36:43.000Z</time>
      </trkpt>
      <trkpt lat="-41.314883" lon="174.827499">
        <ele>3.263782</ele>
        <time>2024-03-17T08:36:57.000Z</time>
      </trkpt>
      <trkpt lat="-41.315162" lon="174.827462">
        <ele>3.405049</ele>
        <time>2024-03-17T08:37:00.000Z</time>
      </trkpt>
      <trkpt lat="-41.315504" lon="174.827521">
        <ele>3.512511</ele>
        <time>2024-03-17T08:37:04.000Z</time>
      </trkpt>
      <trkpt lat="-41.315859" lon="174.827634">
        <ele>3.589727</ele>
        <time>2024-03-17T08:37:08.000Z</time>
      </trkpt>
      <trkpt lat="-41.317336" lon="174.827891">
        <ele>3.873463</ele>
        <time>2024-03-17T08:37:25.000Z</time>
      </trkpt>
      <trkpt lat="-41.317652" lon="174.828062">
        <ele>3.907062</ele>
        <time>2024-03-17T08:37:29.000Z</time>
      </trkpt>
      <trkpt lat="-41.318025" lon="174.828356">
        <ele>3.949773</ele>
        <time>2024-03-17T08:37:34.000Z</time>
      </trkpt>
      <trkpt lat="-41.318262" lon="174.828553">
        <ele>3.977355</ele>
        <time>2024-03-17T08:37:37.000Z</time>
      </trkpt>
      <trkpt lat="-41.318579" lon="174.828826">
        <ele>4.013457</ele>
        <time>2024-03-17T08:37:41.000Z</time>
      </trkpt>
      <trkpt lat="-41.318684" lon="174.828904">
        <ele>4.018207</ele>
        <time>2024-03-17T08:37:42.000Z</time>
      </trkpt>
      <trkpt lat="-41.319015" lon="174.829206">
        <ele>3.957524</ele>
        <time>2024-03-17T08:37:46.000Z</time>
      </trkpt>
      <trkpt lat="-41.319187" lon="174.829451">
        <ele>3.922737</ele>
        <time>2024-03-17T08:37:49.000Z</time>
      </trkpt>
      <trkpt lat="-41.319235" lon="174.829505">
        <ele>3.912444</ele>
        <time>2024-03-17T08:37:50.000Z</time>
      </trkpt>
      <trkpt lat="-41.319272" lon="174.829569">
        <ele>3.903056</ele>
        <time>2024-03-17T08:37:51.000Z</time>
      </trkpt>
      <trkpt lat="-41.319316" lon="174.829648">
        <ele>3.89208</ele>
        <time>2024-03-17T08:37:52.000Z</time>
      </trkpt>
      <trkpt lat="-41.319697" lon="174.830375">
        <ele>3.79494</ele>
        <time>2024-03-17T08:37:59.000Z</time>
      </trkpt>
      <trkpt lat="-41.319324" lon="174.829649">
        <ele>3.827547</ele>
        <time>2024-03-17T08:38:06.000Z</time>
      </trkpt>
      <trkpt lat="-41.319274" lon="174.829568">
        <ele>3.840386</ele>
        <time>2024-03-17T08:38:07.000Z</time>
      </trkpt>
      <trkpt lat="-41.319229" lon="174.829509">
        <ele>3.851363</ele>
        <time>2024-03-17T08:38:08.000Z</time>
      </trkpt>
      <trkpt lat="-41.319176" lon="174.829438">
        <ele>3.863423</ele>
        <time>2024-03-17T08:38:09.000Z</time>
      </trkpt>
      <trkpt lat="-41.319029" lon="174.829214">
        <ele>3.904098</ele>
        <time>2024-03-17T08:38:11.000Z</time>
      </trkpt>
      <trkpt lat="-41.318673" lon="174.828904">
        <ele>3.975062</ele>
        <time>2024-03-17T08:38:16.000Z</time>
      </trkpt>
      <trkpt lat="-41.318582" lon="174.828821">
        <ele>3.996669</ele>
        <time>2024-03-17T08:38:17.000Z</time>
      </trkpt>
      <trkpt lat="-41.318254" lon="174.828571">
        <ele>4.059932</ele>
        <time>2024-03-17T08:38:21.000Z</time>
      </trkpt>
      <trkpt lat="-41.318023" lon="174.828374">
        <ele>4.018745</ele>
        <time>2024-03-17T08:38:24.000Z</time>
      </trkpt>
      <trkpt lat="-41.317662" lon="174.82807">
        <ele>3.928235</ele>
        <time>2024-03-17T08:38:29.000Z</time>
      </trkpt>
      <trkpt lat="-41.317347" lon="174.827891">
        <ele>3.857054</ele>
        <time>2024-03-17T08:38:33.000Z</time>
      </trkpt>
      <trkpt lat="-41.315868" lon="174.827623">
        <ele>3.549381</ele>
        <time>2024-03-17T08:38:50.000Z</time>
      </trkpt>
      <trkpt lat="-41.315503" lon="174.827521">
        <ele>3.475103</ele>
        <time>2024-03-17T08:38:54.000Z</time>
      </trkpt>
      <trkpt lat="-41.315151" lon="174.827468">
        <ele>3.40479</ele>
        <time>2024-03-17T08:38:58.000Z</time>
      </trkpt>
      <trkpt lat="-41.314881" lon="174.827512">
        <ele>3.346401</ele>
        <time>2024-03-17T08:39:01.000Z</time>
      </trkpt>
      <trkpt lat="-41.313611" lon="174.827788">
        <ele>2.624504</ele>
        <time>2024-03-17T08:39:15.000Z</time>
      </trkpt>
      <trkpt lat="-41.313449" lon="174.827837">
        <ele>2.520002</ele>
        <time>2024-03-17T08:39:17.000Z</time>
      </trkpt>
      <trkpt lat="-41.313324" lon="174.828003">
        <ele>2.414638</ele>
        <time>2024-03-17T08:39:19.000Z</time>
      </trkpt>
      <trkpt lat="-41.312862" lon="174.828779">
        <ele>2.132266</ele>
        <time>2024-03-17T08:39:27.000Z</time>
      </trkpt>
      <trkpt lat="-41.312646" lon="174.829451">
        <ele>1.992643</ele>
        <time>2024-03-17T08:39:33.000Z</time>
      </trkpt>
      <trkpt lat="-41.312527" lon="174.829691">
        <ele>1.938861</ele>
        <time>2024-03-17T08:39:35.000Z</time>
      </trkpt>
      <trkpt lat="-41.31241" lon="174.829789">
        <ele>1.902465</ele>
        <time>2024-03-17T08:39:37.000Z</time>
      </trkpt>
      <trkpt lat="-41.312298" lon="174.829842">
        <ele>1.870409</ele>
        <time>2024-03-17T08:39:38.000Z</time>
      </trkpt>
      <trkpt lat="-41.312163" lon="174.829876">
        <ele>1.838739</ele>
        <time>2024-03-17T08:39:40.000Z</time>
      </trkpt>
      <trkpt lat="-41.311571" lon="174.829993">
        <ele>1.914163</ele>
        <time>2024-03-17T08:39:47.000Z</time>
      </trkpt>
      <trkpt lat="-41.310324" lon="174.830107">
        <ele>2.25144</ele>
        <time>2024-03-17T08:40:01.000Z</time>
      </trkpt>
      <trkpt lat="-41.310082" lon="174.830174">
        <ele>2.259319</ele>
        <time>2024-03-17T08:40:04.000Z</time>
      </trkpt>
      <trkpt lat="-41.308365" lon="174.83153">
        <ele>2.207984</ele>
        <time>2024-03-17T08:40:26.000Z</time>
      </trkpt>
      <trkpt lat="-41.307901" lon="174.832643">
        <ele>2.88245</ele>
        <time>2024-03-17T08:40:37.000Z</time>
      </trkpt>
      <trkpt lat="-41.307779" lon="174.8327">
        <ele>2.973056</ele>
        <time>2024-03-17T08:40:38.000Z</time>
      </trkpt>
      <trkpt lat="-41.307418" lon="174.832702">
        <ele>3.223585</ele>
        <time>2024-03-17T08:40:42.000Z</time>
      </trkpt>
      <trkpt lat="-41.306746" lon="174.831961">
        <ele>4.090685</ele>
        <time>2024-03-17T08:40:52.000Z</time>
      </trkpt>
      <trkpt lat="-41.306392" lon="174.831624">
        <ele>4.520356</ele>
        <time>2024-03-17T08:40:57.000Z</time>
      </trkpt>
      <trkpt lat="-41.306187" lon="174.831592">
        <ele>4.735591</ele>
        <time>2024-03-17T08:40:59.000Z</time>
      </trkpt>
      <trkpt lat="-41.305651" lon="174.831283">
        <ele>5.036916</ele>
        <time>2024-03-17T08:41:05.000Z</time>
      </trkpt>
      <trkpt lat="-41.304463" lon="174.831335">
        <ele>4.984351</ele>
        <time>2024-03-17T08:41:18.000Z</time>
      </trkpt>
      <trkpt lat="-41.304285" lon="174.831308">
        <ele>4.977154</ele>
        <time>2024-03-17T08:41:20.000Z</time>
      </trkpt>
      <trkpt lat="-41.304074" lon="174.831064">
        <ele>4.873679</ele>
        <time>2024-03-17T08:41:23.000Z</time>
      </trkpt>
      <trkpt lat="-41.303913" lon="174.830956">
        <ele>4.717887</ele>
        <time>2024-03-17T08:41:25.000Z</time>
      </trkpt>
      <trkpt lat="-41.303787" lon="174.830932">
        <ele>4.611888</ele>
        <time>2024-03-17T08:41:26.000Z</time>
      </trkpt>
      <trkpt lat="-41.303417" lon="174.831038">
        <ele>4.288228</ele>
        <time>2024-03-17T08:41:30.000Z</time>
      </trkpt>
      <trkpt lat="-41.302595" lon="174.831349">
        <ele>3.557272</ele>
        <time>2024-03-17T08:41:40.000Z</time>
      </trkpt>
      <trkpt lat="-41.302336" lon="174.831405">
        <ele>3.320516</ele>
        <time>2024-03-17T08:41:43.000Z</time>
      </trkpt>
      <trkpt lat="-41.301161" lon="174.831523">
        <ele>1.996174</ele>
        <time>2024-03-17T08:41:56.000Z</time>
      </trkpt>
      <trkpt lat="-41.30106" lon="174.831537">
        <ele>1.888411</ele>
        <time>2024-03-17T08:41:57.000Z</time>
      </trkpt>
      <trkpt lat="-41.30072" lon="174.831782">
        <ele>1.472537</ele>
        <time>2024-03-17T08:42:01.000Z</time>
      </trkpt>
      <trkpt lat="-41.300579" lon="174.831791">
        <ele>1.520664</ele>
        <time>2024-03-17T08:42:03.000Z</time>
      </trkpt>
      <trkpt lat="-41.300222" lon="174.831731">
        <ele>1.740668</ele>
        <time>2024-03-17T08:42:07.000Z</time>
      </trkpt>
      <trkpt lat="-41.300144" lon="174.831754">
        <ele>1.787579</ele>
        <time>2024-03-17T08:42:08.000Z</time>
      </trkpt>
      <trkpt lat="-41.29995" lon="174.831886">
        <ele>1.932872</ele>
        <time>2024-03-17T08:42:10.000Z</time>
      </trkpt>
      <trkpt lat="-41.299687" lon="174.832104">
        <ele>2.127761</ele>
        <time>2024-03-17T08:42:13.000Z</time>
      </trkpt>
      <trkpt lat="-41.299391" lon="174.832389">
        <ele>2.359978</ele>
        <time>2024-03-17T08:42:17.000Z</time>
      </trkpt>
      <trkpt lat="-41.299315" lon="174.832419">
        <ele>2.407836</ele>
        <time>2024-03-17T08:42:18.000Z</time>
      </trkpt>
      <trkpt lat="-41.299127" lon="174.832425">
        <ele>2.522682</ele>
        <time>2024-03-17T08:42:20.000Z</time>
      </trkpt>
      <trkpt lat="-41.298451" lon="174.832308">
        <ele>3.423978</ele>
        <time>2024-03-17T08:42:28.000Z</time>
      </trkpt>
      <trkpt lat="-41.297831" lon="174.832341">
        <ele>4.280355</ele>
        <time>2024-03-17T08:42:35.000Z</time>
      </trkpt>
      <trkpt lat="-41.297794" lon="174.832349">
        <ele>4.325048</ele>
        <time>2024-03-17T08:42:35.000Z</time>
      </trkpt>
      <trkpt lat="-41.297405" lon="174.832391">
        <ele>4.875747</ele>
        <time>2024-03-17T08:42:39.000Z</time>
      </trkpt>
      <trkpt lat="-41.297367" lon="174.832397">
        <ele>4.925393</ele>
        <time>2024-03-17T08:42:39.000Z</time>
      </trkpt>
      <trkpt lat="-41.297155" lon="174.832476">
        <ele>5.064116</ele>
        <time>2024-03-17T08:42:41.000Z</time>
      </trkpt>
      <trkpt lat="-41.296905" lon="174.832682">
        <ele>5.027401</ele>
        <time>2024-03-17T08:42:44.000Z</time>
      </trkpt>
      <trkpt lat="-41.296646" lon="174.833068">
        <ele>4.978373</ele>
        <time>2024-03-17T08:42:48.000Z</time>
      </trkpt>
      <trkpt lat="-41.296546" lon="174.83331">
        <ele>4.953794</ele>
        <time>2024-03-17T08:42:50.000Z</time>
      </trkpt>
      <trkpt lat="-41.2965" lon="174.833529">
        <ele>4.932487</ele>
        <time>2024-03-17T08:42:52.000Z</time>
      </trkpt>
      <trkpt lat="-41.296499" lon="174.833761">
        <ele>4.911149</ele>
        <time>2024-03-17T08:42:54.000Z</time>
      </trkpt>
      <trkpt lat="-41.296548" lon="174.834155">
        <ele>4.872637</ele>
        <time>2024-03-17T08:42:57.000Z</time>
      </trkpt>
      <trkpt lat="-41.296714" lon="174.835008">
        <ele>4.555858</ele>
        <time>2024-03-17T08:43:04.000Z</time>
      </trkpt>
      <trkpt lat="-41.296727" lon="174.835181">
        <ele>4.478129</ele>
        <time>2024-03-17T08:43:05.000Z</time>
      </trkpt>
      <trkpt lat="-41.296706" lon="174.835371">
        <ele>4.398882</ele>
        <time>2024-03-17T08:43:07.000Z</time>
      </trkpt>
      <trkpt lat="-41.296613" lon="174.835466">
        <ele>4.330626</ele>
        <time>2024-03-17T08:43:08.000Z</time>
      </trkpt>
      <trkpt lat="-41.296216" lon="174.83566">
        <ele>4.080738</ele>
        <time>2024-03-17T08:43:13.000Z</time>
      </trkpt>
      <trkpt lat="-41.296052" lon="174.835774">
        <ele>3.975228</ele>
        <time>2024-03-17T08:43:15.000Z</time>
      </trkpt>
      <trkpt lat="-41.295845" lon="174.835984">
        <ele>3.821205</ele>
        <time>2024-03-17T08:43:18.000Z</time>
      </trkpt>
      <trkpt lat="-41.295718" lon="174.836091">
        <ele>4.122561</ele>
        <time>2024-03-17T08:43:20.000Z</time>
      </trkpt>
      <trkpt lat="-41.295485" lon="174.836156">
        <ele>4.711385</ele>
        <time>2024-03-17T08:43:23.000Z</time>
      </trkpt>
      <trkpt lat="-41.294181" lon="174.835694">
        <ele>8.029556</ele>
        <time>2024-03-17T08:43:38.000Z</time>
      </trkpt>
      <trkpt lat="-41.293996" lon="174.83557">
        <ele>8.616554</ele>
        <time>2024-03-17T08:43:40.000Z</time>
      </trkpt>
      <trkpt lat="-41.293836" lon="174.83531">
        <ele>9.290849</ele>
        <time>2024-03-17T08:43:43.000Z</time>
      </trkpt>
      <trkpt lat="-41.293407" lon="174.834067">
        <ele>12.27859</ele>
        <time>2024-03-17T08:43:54.000Z</time>
      </trkpt>
      <trkpt lat="-41.293163" lon="174.833116">
        <ele>12.867129</ele>
        <time>2024-03-17T08:44:02.000Z</time>
      </trkpt>
      <trkpt lat="-41.293013" lon="174.832793">
        <ele>12.412386</ele>
        <time>2024-03-17T08:44:05.000Z</time>
      </trkpt>
      <trkpt lat="-41.292794" lon="174.83256">
        <ele>11.965594</ele>
        <time>2024-03-17T08:44:08.000Z</time>
      </trkpt>
      <trkpt lat="-41.292544" lon="174.832488">
        <ele>11.539187</ele>
        <time>2024-03-17T08:44:11.000Z</time>
      </trkpt>
      <trkpt lat="-41.292419" lon="174.832486">
        <ele>11.341028</ele>
        <time>2024-03-17T08:44:12.000Z</time>
      </trkpt>
      <trkpt lat="-41.292298" lon="174.832535">
        <ele>11.118207</ele>
        <time>2024-03-17T08:44:13.000Z</time>
      </trkpt>
      <trkpt lat="-41.292" lon="174.832826">
        <ele>10.526251</ele>
        <time>2024-03-17T08:44:17.000Z</time>
      </trkpt>
      <trkpt lat="-41.291915" lon="174.83287">
        <ele>10.478933</ele>
        <time>2024-03-17T08:44:18.000Z</time>
      </trkpt>
      <trkpt lat="-41.291755" lon="174.8329">
        <ele>10.3942</ele>
        <time>2024-03-17T08:44:20.000Z</time>
      </trkpt>
      <trkpt lat="-41.291378" lon="174.832884">
        <ele>10.193454</ele>
        <time>2024-03-17T08:44:24.000Z</time>
      </trkpt>
      <trkpt lat="-41.290724" lon="174.832653">
        <ele>9.830171</ele>
        <time>2024-03-17T08:44:32.000Z</time>
      </trkpt>
      <trkpt lat="-41.290437" lon="174.83262">
        <ele>9.681619</ele>
        <time>2024-03-17T08:44:35.000Z</time>
      </trkpt>
      <trkpt lat="-41.290215" lon="174.832674">
        <ele>9.665935</ele>
        <time>2024-03-17T08:44:38.000Z</time>
      </trkpt>
      <trkpt lat="-41.289997" lon="174.832763">
        <ele>11.05725</ele>
        <time>2024-03-17T08:44:41.000Z</time>
      </trkpt>
      <trkpt lat="-41.289426" lon="174.8332">
        <ele>14.849119</ele>
        <time>2024-03-17T08:44:48.000Z</time>
      </trkpt>
      <trkpt lat="-41.28932" lon="174.833234">
        <ele>15.483315</ele>
        <time>2024-03-17T08:44:49.000Z</time>
      </trkpt>
      <trkpt lat="-41.289218" lon="174.833219">
        <ele>16.051176</ele>
        <time>2024-03-17T08:44:50.000Z</time>
      </trkpt>
      <trkpt lat="-41.289128" lon="174.833076">
        <ele>16.869636</ele>
        <time>2024-03-17T08:44:52.000Z</time>
      </trkpt>
      <trkpt lat="-41.289083" lon="174.832915">
        <ele>17.5971</ele>
        <time>2024-03-17T08:44:53.000Z</time>
      </trkpt>
      <trkpt lat="-41.288956" lon="174.831544">
        <ele>23.708697</ele>
        <time>2024-03-17T08:45:05.000Z</time>
      </trkpt>
      <trkpt lat="-41.288932" lon="174.830788">
        <ele>27.040781</ele>
        <time>2024-03-17T08:45:11.000Z</time>
      </trkpt>
      <trkpt lat="-41.288876" lon="174.830334">
        <ele>29.120822</ele>
        <time>2024-03-17T08:45:15.000Z</time>
      </trkpt>
      <trkpt lat="-41.288765" lon="174.829903">
        <ele>30.255461</ele>
        <time>2024-03-17T08:45:19.000Z</time>
      </trkpt>
      <trkpt lat="-41.28866" lon="174.829692">
        <ele>29.670359</ele>
        <time>2024-03-17T08:45:21.000Z</time>
      </trkpt>
      <trkpt lat="-41.288457" lon="174.829394">
        <ele>28.665799</ele>
        <time>2024-03-17T08:45:24.000Z</time>
      </trkpt>
      <trkpt lat="-41.288074" lon="174.828954">
        <ele>27.091999</ele>
        <time>2024-03-17T08:45:30.000Z</time>
      </trkpt>
      <trkpt lat="-41.28698" lon="174.828072">
        <ele>22.684201</ele>
        <time>2024-03-17T08:45:44.000Z</time>
      </trkpt>
      <trkpt lat="-41.28653" lon="174.827417">
        <ele>20.221105</ele>
        <time>2024-03-17T08:45:51.000Z</time>
      </trkpt>
      <trkpt lat="-41.286362" lon="174.827259">
        <ele>19.505524</ele>
        <time>2024-03-17T08:45:53.000Z</time>
      </trkpt>
      <trkpt lat="-41.285609" lon="174.827108">
        <ele>18.39813</ele>
        <time>2024-03-17T08:46:01.000Z</time>
      </trkpt>
      <trkpt lat="-41.285385" lon="174.826994">
        <ele>18.525844</ele>
        <time>2024-03-17T08:46:04.000Z</time>
      </trkpt>
      <trkpt lat="-41.28439" lon="174.826291">
        <ele>19.167807</ele>
        <time>2024-03-17T08:46:17.000Z</time>
      </trkpt>
      <trkpt lat="-41.284307" lon="174.826183">
        <ele>19.710317</ele>
        <time>2024-03-17T08:46:18.000Z</time>
      </trkpt>
      <trkpt lat="-41.284284" lon="174.826082">
        <ele>20.185595</ele>
        <time>2024-03-17T08:46:19.000Z</time>
      </trkpt>
      <trkpt lat="-41.284298" lon="174.825974">
        <ele>20.715873</ele>
        <time>2024-03-17T08:46:20.000Z</time>
      </trkpt>
      <trkpt lat="-41.284342" lon="174.825837">
        <ele>21.361656</ele>
        <time>2024-03-17T08:46:21.000Z</time>
      </trkpt>
      <trkpt lat="-41.284628" lon="174.825473">
        <ele>23.8952</ele>
        <time>2024-03-17T08:46:25.000Z</time>
      </trkpt>
      <trkpt lat="-41.284775" lon="174.825349">
        <ele>24.922517</ele>
        <time>2024-03-17T08:46:27.000Z</time>
      </trkpt>
      <trkpt lat="-41.284862" lon="174.82531">
        <ele>25.455246</ele>
        <time>2024-03-17T08:46:28.000Z</time>
      </trkpt>
      <trkpt lat="-41.284944" lon="174.8253">
        <ele>26.022846</ele>
        <time>2024-03-17T08:46:29.000Z</time>
      </trkpt>
      <trkpt lat="-41.285575" lon="174.825313">
        <ele>29.910385</ele>
        <time>2024-03-17T08:46:36.000Z</time>
      </trkpt>
      <trkpt lat="-41.285926" lon="174.825184">
        <ele>31.774073</ele>
        <time>2024-03-17T08:46:40.000Z</time>
      </trkpt>
      <trkpt lat="-41.286297" lon="174.825154">
        <ele>33.594208</ele>
        <time>2024-03-17T08:46:44.000Z</time>
      </trkpt>
      <trkpt lat="-41.286425" lon="174.825113">
        <ele>34.232271</ele>
        <time>2024-03-17T08:46:45.000Z</time>
      </trkpt>
      <trkpt lat="-41.286637" lon="174.824966">
        <ele>35.448434</ele>
        <time>2024-03-17T08:46:48.000Z</time>
      </trkpt>
      <trkpt lat="-41.286882" lon="174.824624">
        <ele>37.205673</ele>
        <time>2024-03-17T08:46:52.000Z</time>
      </trkpt>
      <trkpt lat="-41.287264" lon="174.824309">
        <ele>39.125812</ele>
        <time>2024-03-17T08:46:57.000Z</time>
      </trkpt>
      <trkpt lat="-41.287592" lon="174.824024">
        <ele>38.423818</ele>
        <time>2024-03-17T08:47:01.000Z</time>
      </trkpt>
      <trkpt lat="-41.287259" lon="174.824294">
        <ele>37.721818</ele>
        <time>2024-03-17T08:47:05.000Z</time>
      </trkpt>
      <trkpt lat="-41.286893" lon="174.82462">
        <ele>36.920136</ele>
        <time>2024-03-17T08:47:10.000Z</time>
      </trkpt>
      <trkpt lat="-41.286625" lon="174.824967">
        <ele>36.284626</ele>
        <time>2024-03-17T08:47:14.000Z</time>
      </trkpt>
      <trkpt lat="-41.286419" lon="174.825109">
        <ele>35.46636</ele>
        <time>2024-03-17T08:47:17.000Z</time>
      </trkpt>
      <trkpt lat="-41.286289" lon="174.825152">
        <ele>34.571403</ele>
        <time>2024-03-17T08:47:18.000Z</time>
      </trkpt>
      <trkpt lat="-41.285919" lon="174.825182">
        <ele>32.018445</ele>
        <time>2024-03-17T08:47:22.000Z</time>
      </trkpt>
      <trkpt lat="-41.285568" lon="174.825313">
        <ele>29.505219</ele>
        <time>2024-03-17T08:47:26.000Z</time>
      </trkpt>
      <trkpt lat="-41.284938" lon="174.825284">
        <ele>25.118823</ele>
        <time>2024-03-17T08:47:33.000Z</time>
      </trkpt>
      <trkpt lat="-41.284847" lon="174.825303">
        <ele>24.478389</ele>
        <time>2024-03-17T08:47:34.000Z</time>
      </trkpt>
      <trkpt lat="-41.284778" lon="174.82535">
        <ele>23.877314</ele>
        <time>2024-03-17T08:47:35.000Z</time>
      </trkpt>
      <trkpt lat="-41.284628" lon="174.825463">
        <ele>23.100368</ele>
        <time>2024-03-17T08:47:37.000Z</time>
      </trkpt>
      <trkpt lat="-41.284338" lon="174.825848">
        <ele>21.72357</ele>
        <time>2024-03-17T08:47:42.000Z</time>
      </trkpt>
      <trkpt lat="-41.2843" lon="174.825965">
        <ele>21.372637</ele>
        <time>2024-03-17T08:47:43.000Z</time>
      </trkpt>
      <trkpt lat="-41.284281" lon="174.826081">
        <ele>21.084468</ele>
        <time>2024-03-17T08:47:44.000Z</time>
      </trkpt>
      <trkpt lat="-41.284299" lon="174.826181">
        <ele>20.826197</ele>
        <time>2024-03-17T08:47:45.000Z</time>
      </trkpt>
      <trkpt lat="-41.284387" lon="174.826279">
        <ele>20.459931</ele>
        <time>2024-03-17T08:47:46.000Z</time>
      </trkpt>
      <trkpt lat="-41.285397" lon="174.827008">
        <ele>17.851972</ele>
        <time>2024-03-17T08:47:59.000Z</time>
      </trkpt>
      <trkpt lat="-41.285599" lon="174.827093">
        <ele>18.264337</ele>
        <time>2024-03-17T08:48:01.000Z</time>
      </trkpt>
      <trkpt lat="-41.286372" lon="174.827258">
        <ele>19.670418</ele>
        <time>2024-03-17T08:48:10.000Z</time>
      </trkpt>
      <trkpt lat="-41.286528" lon="174.827415">
        <ele>20.025454</ele>
        <time>2024-03-17T08:48:12.000Z</time>
      </trkpt>
      <trkpt lat="-41.286994" lon="174.82806">
        <ele>22.178539</ele>
        <time>2024-03-17T08:48:19.000Z</time>
      </trkpt>
      <trkpt lat="-41.288086" lon="174.828954">
        <ele>28.45877</ele>
        <time>2024-03-17T08:48:33.000Z</time>
      </trkpt>
      <trkpt lat="-41.288441" lon="174.82938">
        <ele>29.099049</ele>
        <time>2024-03-17T08:48:38.000Z</time>
      </trkpt>
      <trkpt lat="-41.288653" lon="174.829684">
        <ele>28.676206</ele>
        <time>2024-03-17T08:48:41.000Z</time>
      </trkpt>
      <trkpt lat="-41.288753" lon="174.82989">
        <ele>28.429919</ele>
        <time>2024-03-17T08:48:43.000Z</time>
      </trkpt>
      <trkpt lat="-41.28888" lon="174.830325">
        <ele>27.953152</ele>
        <time>2024-03-17T08:48:47.000Z</time>
      </trkpt>
      <trkpt lat="-41.288942" lon="174.830791">
        <ele>27.474376</ele>
        <time>2024-03-17T08:48:51.000Z</time>
      </trkpt>
      <trkpt lat="-41.288951" lon="174.831538">
        <ele>25.175907</ele>
        <time>2024-03-17T08:48:57.000Z</time>
      </trkpt>
      <trkpt lat="-41.289084" lon="174.832914">
        <ele>16.872737</ele>
        <time>2024-03-17T08:49:09.000Z</time>
      </trkpt>
      <trkpt lat="-41.289125" lon="174.833071">
        <ele>15.866615</ele>
        <time>2024-03-17T08:49:10.000Z</time>
      </trkpt>
      <trkpt lat="-41.289213" lon="174.833218">
        <ele>14.734661</ele>
        <time>2024-03-17T08:49:12.000Z</time>
      </trkpt>
      <trkpt lat="-41.289318" lon="174.833235">
        <ele>13.949266</ele>
        <time>2024-03-17T08:49:13.000Z</time>
      </trkpt>
      <trkpt lat="-41.289428" lon="174.83321">
        <ele>13.072142</ele>
        <time>2024-03-17T08:49:14.000Z</time>
      </trkpt>
      <trkpt lat="-41.289996" lon="174.832768">
        <ele>11.447057</ele>
        <time>2024-03-17T08:49:21.000Z</time>
      </trkpt>
      <trkpt lat="-41.290231" lon="174.832672">
        <ele>10.950466</ele>
        <time>2024-03-17T08:49:24.000Z</time>
      </trkpt>
      <trkpt lat="-41.290429" lon="174.832623">
        <ele>10.51217</ele>
        <time>2024-03-17T08:49:26.000Z</time>
      </trkpt>
      <trkpt lat="-41.290721" lon="174.832642">
        <ele>9.93593</ele>
        <time>2024-03-17T08:49:29.000Z</time>
      </trkpt>
      <trkpt lat="-41.291377" lon="174.832899">
        <ele>9.522746</ele>
        <time>2024-03-17T08:49:37.000Z</time>
      </trkpt>
      <trkpt lat="-41.291759" lon="174.832903">
        <ele>10.345952</ele>
        <time>2024-03-17T08:49:41.000Z</time>
      </trkpt>
      <trkpt lat="-41.291921" lon="174.832876">
        <ele>10.693512</ele>
        <time>2024-03-17T08:49:43.000Z</time>
      </trkpt>
      <trkpt lat="-41.291994" lon="174.832832">
        <ele>10.887546</ele>
        <time>2024-03-17T08:49:44.000Z</time>
      </trkpt>
      <trkpt lat="-41.292289" lon="174.83253">
        <ele>11.688214</ele>
        <time>2024-03-17T08:49:48.000Z</time>
      </trkpt>
      <trkpt lat="-41.292424" lon="174.832482">
        <ele>11.986299</ele>
        <time>2024-03-17T08:49:50.000Z</time>
      </trkpt>
      <trkpt lat="-41.292551" lon="174.832477">
        <ele>12.251396</ele>
        <time>2024-03-17T08:49:51.000Z</time>
      </trkpt>
      <trkpt lat="-41.292798" lon="174.832562">
        <ele>12.821875</ele>
        <time>2024-03-17T08:49:54.000Z</time>
      </trkpt>
      <trkpt lat="-41.293013" lon="174.832796">
        <ele>12.728574</ele>
        <time>2024-03-17T08:49:57.000Z</time>
      </trkpt>
      <trkpt lat="-41.29316" lon="174.833111">
        <ele>12.499817</ele>
        <time>2024-03-17T08:50:00.000Z</time>
      </trkpt>
      <trkpt lat="-41.293404" lon="174.834066">
        <ele>11.876296</ele>
        <time>2024-03-17T08:50:08.000Z</time>
      </trkpt>
      <trkpt lat="-41.293847" lon="174.835311">
        <ele>9.680782</ele>
        <time>2024-03-17T08:50:20.000Z</time>
      </trkpt>
      <trkpt lat="-41.293979" lon="174.83556">
        <ele>8.871466</ele>
        <time>2024-03-17T08:50:23.000Z</time>
      </trkpt>
      <trkpt lat="-41.294185" lon="174.835685">
        <ele>8.121786</ele>
        <time>2024-03-17T08:50:26.000Z</time>
      </trkpt>
      <trkpt lat="-41.295478" lon="174.836143">
        <ele>4.878711</ele>
        <time>2024-03-17T08:50:41.000Z</time>
      </trkpt>
      <trkpt lat="-41.295722" lon="174.836093">
        <ele>4.724479</ele>
        <time>2024-03-17T08:50:44.000Z</time>
      </trkpt>
      <trkpt lat="-41.295842" lon="174.835988">
        <ele>4.631954</ele>
        <time>2024-03-17T08:50:46.000Z</time>
      </trkpt>
      <trkpt lat="-41.296045" lon="174.835775">
        <ele>4.460404</ele>
        <time>2024-03-17T08:50:49.000Z</time>
      </trkpt>
      <trkpt lat="-41.296201" lon="174.835662">
        <ele>4.342912</ele>
        <time>2024-03-17T08:50:51.000Z</time>
      </trkpt>
      <trkpt lat="-41.296608" lon="174.83547">
        <ele>4.064598</ele>
        <time>2024-03-17T08:50:56.000Z</time>
      </trkpt>
      <trkpt lat="-41.296708" lon="174.835359">
        <ele>3.99433107685</ele>
        <time>2024-03-17T08:50:57.000Z</time>
      </trkpt>
      <trkpt lat="-41.296727" lon="174.835187">
        <ele>3.92384656287</ele>
        <time>2024-03-17T08:50:58.000Z</time>
      </trkpt>
      <trkpt lat="-41.296727" lon="174.835014">
        <ele>3.85370636717</ele>
        <time>2024-03-17T08:50:59.000Z</time>
      </trkpt>
      <trkpt lat="-41.296551" lon="174.834163">
        <ele>3.49584723938</ele>
        <time>2024-03-17T08:51:06.000Z</time>
      </trkpt>
      <trkpt lat="-41.296503" lon="174.833756">
        <ele>3.32881414715</ele>
        <time>2024-03-17T08:51:09.000Z</time>
      </trkpt>
      <trkpt lat="-41.296507" lon="174.833535">
        <ele>3.23918678584</ele>
        <time>2024-03-17T08:51:11.000Z</time>
      </trkpt>
      <trkpt lat="-41.296553" lon="174.833307">
        <ele>3.14347237297</ele>
        <time>2024-03-17T08:51:13.000Z</time>
      </trkpt>
    </trkseg>
  </trk>
</gpx>

<!--
Performance optimized by W3 Total Cache. Learn more: https://www.boldgrid.com/w3-total-cache/?utm_source=w3tc&utm_medium=footer_comment&utm_campaign=free_plugin

Page Caching using Disk: Enhanced{w3tc_pagecache_reject_reason} 

Served from: www.aquabike.world @ 2026-05-07 17:24:13 by W3 Total Cache
-->